LFRM/LME METAR and TAF weather

Enter ICAO airport designator
Station Type Date Time Source
LFRM METAR 2019/02/16 17:30 UTC NOAA

LFRM 161730Z AUTO 16002KT CAVOK 13/06 Q1023 NOSIG


Station Type Date Time Source
LFRM Decoded METAR 2019/02/16 17:30 UTC NOAA

Le Mans, France (LFRM) 47-56N 000-12E 52M
Feb 16, 2019 - 12:30 PM EST / 2019.02.16 1730 UTC
Wind: from the SSE (160 degrees) at 2 MPH (2 KT):0
Visibility: greater than 7 mile(s):0
Temperature: 55 F (13 C)
Dew Point: 42 F (6 C)
Relative Humidity: 62%
Pressure (altimeter): 30.21 in. Hg (1023 hPa)
ob: LFRM 161730Z AUTO 16002KT CAVOK 13/06 Q1023 NOSIG
cycle: 17

Station Type Date Time Source
LFRM TAF 2019/02/16 12:26 UTC NOAA

TAF LFRM 161100Z 1612/1712 12005KT CAVOK PROB30 1621/1703 4000 BR
BECMG 1709/1712 19010KT


Example: see airport list